sensor_id;sensor_type;location;lat;lon;timestamp;temperature;humidity
15900;DHT22;8048;50.644;6.184;2023-05-07T00:00:22;12.90;99.90
15900;DHT22;8048;50.644;6.184;2023-05-07T00:02:48;12.90;99.90
15900;DHT22;8048;50.644;6.184;2023-05-07T00:05:14;12.90;99.90
15900;DHT22;8048;50.644;6.184;2023-05-07T00:07:40;12.90;99.90
15900;DHT22;8048;50.644;6.184;2023-05-07T00:10:06;12.90;99.90
15900;DHT22;8048;50.644;6.184;2023-05-07T00:12:32;12.90;99.90
15900;DHT22;8048;50.644;6.184;2023-05-07T00:15:02;12.90;99.90
15900;DHT22;8048;50.644;6.184;2023-05-07T00:17:29;12.90;99.90
15900;DHT22;8048;50.644;6.184;2023-05-07T00:19:54;13.00;99.90
15900;DHT22;8048;50.644;6.184;2023-05-07T00:22:20;13.00;99.90
15900;DHT22;8048;50.644;6.184;2023-05-07T00:24:46;13.00;99.90
15900;DHT22;8048;50.644;6.184;2023-05-07T00:27:12;13.00;99.90
15900;DHT22;8048;50.644;6.184;2023-05-07T00:29:37;13.00;99.90
15900;DHT22;8048;50.644;6.184;2023-05-07T00:32:03;13.00;99.90
15900;DHT22;8048;50.644;6.184;2023-05-07T00:34:28;13.00;99.90
15900;DHT22;8048;50.644;6.184;2023-05-07T00:36:54;13.00;99.90
15900;DHT22;8048;50.644;6.184;2023-05-07T00:39:19;13.10;99.90
15900;DHT22;8048;50.644;6.184;2023-05-07T00:41:45;13.10;99.90
15900;DHT22;8048;50.644;6.184;2023-05-07T00:44:11;13.10;99.90
15900;DHT22;8048;50.644;6.184;2023-05-07T00:46:37;13.10;99.90
15900;DHT22;8048;50.644;6.184;2023-05-07T00:49:02;13.10;99.90
15900;DHT22;8048;50.644;6.184;2023-05-07T00:51:29;13.10;99.90
15900;DHT22;8048;50.644;6.184;2023-05-07T00:53:55;13.10;99.90
15900;DHT22;8048;50.644;6.184;2023-05-07T00:56:21;13.10;99.90
15900;DHT22;8048;50.644;6.184;2023-05-07T00:58:48;13.10;99.90
15900;DHT22;8048;50.644;6.184;2023-05-07T01:01:13;13.00;99.90
15900;DHT22;8048;50.644;6.184;2023-05-07T01:03:41;13.00;99.90
15900;DHT22;8048;50.644;6.184;2023-05-07T01:06:07;13.10;99.90
15900;DHT22;8048;50.644;6.184;2023-05-07T01:08:34;13.10;99.90
15900;DHT22;8048;50.644;6.184;2023-05-07T01:11:00;13.00;99.90
15900;DHT22;8048;50.644;6.184;2023-05-07T01:13:27;13.00;99.90
15900;DHT22;8048;50.644;6.184;2023-05-07T01:15:53;13.00;99.90
15900;DHT22;8048;50.644;6.184;2023-05-07T01:18:18;13.10;99.90
15900;DHT22;8048;50.644;6.184;2023-05-07T01:20:45;13.10;99.90
15900;DHT22;8048;50.644;6.184;2023-05-07T01:23:11;13.00;99.90
15900;DHT22;8048;50.644;6.184;2023-05-07T01:25:36;13.10;99.90
15900;DHT22;8048;50.644;6.184;2023-05-07T01:28:02;13.00;99.90
15900;DHT22;8048;50.644;6.184;2023-05-07T01:30:28;13.00;99.90
15900;DHT22;8048;50.644;6.184;2023-05-07T01:33:09;13.00;99.90
15900;DHT22;8048;50.644;6.184;2023-05-07T01:35:40;13.00;99.90
15900;DHT22;8048;50.644;6.184;2023-05-07T01:38:07;13.00;99.90
15900;DHT22;8048;50.644;6.184;2023-05-07T01:40:33;13.00;99.90
15900;DHT22;8048;50.644;6.184;2023-05-07T01:43:03;13.00;99.90
15900;DHT22;8048;50.644;6.184;2023-05-07T01:45:30;13.10;99.90
15900;DHT22;8048;50.644;6.184;2023-05-07T01:47:56;13.10;99.90
15900;DHT22;8048;50.644;6.184;2023-05-07T01:50:23;13.00;99.90
15900;DHT22;8048;50.644;6.184;2023-05-07T01:52:50;13.00;99.90
15900;DHT22;8048;50.644;6.184;2023-05-07T01:55:16;13.00;99.90
15900;DHT22;8048;50.644;6.184;2023-05-07T01:57:41;13.00;99.90
15900;DHT22;8048;50.644;6.184;2023-05-07T02:00:07;13.00;99.90
15900;DHT22;8048;50.644;6.184;2023-05-07T02:02:34;13.10;99.90
15900;DHT22;8048;50.644;6.184;2023-05-07T02:05:00;13.00;99.90
15900;DHT22;8048;50.644;6.184;2023-05-07T02:07:27;13.00;99.90
15900;DHT22;8048;50.644;6.184;2023-05-07T02:09:52;13.00;99.90
15900;DHT22;8048;50.644;6.184;2023-05-07T02:12:19;13.10;99.90
15900;DHT22;8048;50.644;6.184;2023-05-07T02:14:44;13.10;99.90
15900;DHT22;8048;50.644;6.184;2023-05-07T02:17:10;13.10;99.90
15900;DHT22;8048;50.644;6.184;2023-05-07T02:19:35;13.10;99.90
15900;DHT22;8048;50.644;6.184;2023-05-07T02:22:01;13.10;99.90
15900;DHT22;8048;50.644;6.184;2023-05-07T02:24:26;13.10;99.90
15900;DHT22;8048;50.644;6.184;2023-05-07T02:26:52;13.10;99.90
15900;DHT22;8048;50.644;6.184;2023-05-07T02:29:17;13.10;99.90
15900;DHT22;8048;50.644;6.184;2023-05-07T02:31:43;13.10;99.90
15900;DHT22;8048;50.644;6.184;2023-05-07T02:34:08;13.10;99.90
15900;DHT22;8048;50.644;6.184;2023-05-07T02:36:34;13.10;99.90
15900;DHT22;8048;50.644;6.184;2023-05-07T02:39:00;13.10;99.90
15900;DHT22;8048;50.644;6.184;2023-05-07T02:41:25;13.10;99.90
15900;DHT22;8048;50.644;6.184;2023-05-07T02:43:53;13.10;99.90
15900;DHT22;8048;50.644;6.184;2023-05-07T02:46:18;13.10;99.90
15900;DHT22;8048;50.644;6.184;2023-05-07T02:48:44;13.10;99.90
15900;DHT22;8048;50.644;6.184;2023-05-07T02:51:10;13.10;99.90
15900;DHT22;8048;50.644;6.184;2023-05-07T02:53:35;13.10;99.90
15900;DHT22;8048;50.644;6.184;2023-05-07T02:56:01;13.10;99.90
15900;DHT22;8048;50.644;6.184;2023-05-07T02:58:27;13.10;99.90
15900;DHT22;8048;50.644;6.184;2023-05-07T03:00:53;13.10;99.90
15900;DHT22;8048;50.644;6.184;2023-05-07T03:03:20;13.10;99.90
15900;DHT22;8048;50.644;6.184;2023-05-07T03:05:45;13.10;99.90
15900;DHT22;8048;50.644;6.184;2023-05-07T03:08:11;13.20;99.90
15900;DHT22;8048;50.644;6.184;2023-05-07T03:10:37;13.10;99.90
15900;DHT22;8048;50.644;6.184;2023-05-07T03:13:03;13.10;99.90
15900;DHT22;8048;50.644;6.184;2023-05-07T03:15:28;13.10;99.90
15900;DHT22;8048;50.644;6.184;2023-05-07T03:17:54;13.10;99.90
15900;DHT22;8048;50.644;6.184;2023-05-07T03:20:19;13.10;99.90
15900;DHT22;8048;50.644;6.184;2023-05-07T03:22:45;13.10;99.90
15900;DHT22;8048;50.644;6.184;2023-05-07T03:25:11;13.10;99.90
15900;DHT22;8048;50.644;6.184;2023-05-07T03:27:36;13.10;99.90
15900;DHT22;8048;50.644;6.184;2023-05-07T03:30:02;13.10;99.90
15900;DHT22;8048;50.644;6.184;2023-05-07T03:32:28;13.00;99.90
15900;DHT22;8048;50.644;6.184;2023-05-07T03:34:53;13.00;99.90
15900;DHT22;8048;50.644;6.184;2023-05-07T03:37:19;13.00;99.90
15900;DHT22;8048;50.644;6.184;2023-05-07T03:39:44;13.00;99.90
15900;DHT22;8048;50.644;6.184;2023-05-07T03:42:10;13.00;99.90
15900;DHT22;8048;50.644;6.184;2023-05-07T03:44:36;13.00;99.90
15900;DHT22;8048;50.644;6.184;2023-05-07T03:47:02;13.00;99.90
15900;DHT22;8048;50.644;6.184;2023-05-07T03:49:28;13.00;99.90
15900;DHT22;8048;50.644;6.184;2023-05-07T03:51:53;13.00;99.90
15900;DHT22;8048;50.644;6.184;2023-05-07T03:54:19;13.00;99.90
15900;DHT22;8048;50.644;6.184;2023-05-07T03:56:44;13.00;99.90
15900;DHT22;8048;50.644;6.184;2023-05-07T03:59:10;12.90;99.90
15900;DHT22;8048;50.644;6.184;2023-05-07T04:01:35;12.90;99.90
15900;DHT22;8048;50.644;6.184;2023-05-07T04:04:01;13.00;99.90
15900;DHT22;8048;50.644;6.184;2023-05-07T04:06:27;12.90;99.90
15900;DHT22;8048;50.644;6.184;2023-05-07T04:08:52;12.90;99.90
15900;DHT22;8048;50.644;6.184;2023-05-07T04:11:18;12.90;99.90
15900;DHT22;8048;50.644;6.184;2023-05-07T04:13:44;12.90;99.90
15900;DHT22;8048;50.644;6.184;2023-05-07T04:16:09;12.90;99.90
15900;DHT22;8048;50.644;6.184;2023-05-07T04:18:35;12.90;99.90
15900;DHT22;8048;50.644;6.184;2023-05-07T04:21:00;12.80;99.90
15900;DHT22;8048;50.644;6.184;2023-05-07T04:23:26;12.80;99.90
15900;DHT22;8048;50.644;6.184;2023-05-07T04:25:51;12.80;99.90
15900;DHT22;8048;50.644;6.184;2023-05-07T04:28:18;12.80;99.90
15900;DHT22;8048;50.644;6.184;2023-05-07T04:30:43;12.90;99.90
15900;DHT22;8048;50.644;6.184;2023-05-07T04:33:09;12.90;99.90
15900;DHT22;8048;50.644;6.184;2023-05-07T04:35:35;12.90;99.90
15900;DHT22;8048;50.644;6.184;2023-05-07T04:38:00;12.90;99.90
15900;DHT22;8048;50.644;6.184;2023-05-07T04:40:26;12.90;99.90
15900;DHT22;8048;50.644;6.184;2023-05-07T04:42:52;13.00;99.90
15900;DHT22;8048;50.644;6.184;2023-05-07T04:45:18;13.00;99.90
15900;DHT22;8048;50.644;6.184;2023-05-07T04:47:44;13.00;99.90
15900;DHT22;8048;50.644;6.184;2023-05-07T04:50:09;13.10;99.90
15900;DHT22;8048;50.644;6.184;2023-05-07T04:52:36;13.10;99.90
15900;DHT22;8048;50.644;6.184;2023-05-07T04:55:02;13.10;99.90
15900;DHT22;8048;50.644;6.184;2023-05-07T04:57:27;13.20;99.90
15900;DHT22;8048;50.644;6.184;2023-05-07T04:59:56;13.20;99.90
15900;DHT22;8048;50.644;6.184;2023-05-07T05:02:22;13.30;99.90
15900;DHT22;8048;50.644;6.184;2023-05-07T05:04:47;13.40;99.90
15900;DHT22;8048;50.644;6.184;2023-05-07T05:07:13;13.50;99.90
15900;DHT22;8048;50.644;6.184;2023-05-07T05:09:38;13.70;99.90
15900;DHT22;8048;50.644;6.184;2023-05-07T05:12:04;13.80;99.90
15900;DHT22;8048;50.644;6.184;2023-05-07T05:14:32;13.80;99.90
15900;DHT22;8048;50.644;6.184;2023-05-07T05:16:58;13.90;99.90
15900;DHT22;8048;50.644;6.184;2023-05-07T05:19:23;14.00;99.90
15900;DHT22;8048;50.644;6.184;2023-05-07T05:21:49;14.10;99.90
15900;DHT22;8048;50.644;6.184;2023-05-07T05:24:14;14.00;99.90
15900;DHT22;8048;50.644;6.184;2023-05-07T05:26:40;14.00;99.90
15900;DHT22;8048;50.644;6.184;2023-05-07T05:29:06;14.00;99.90
15900;DHT22;8048;50.644;6.184;2023-05-07T05:31:31;14.10;99.90
15900;DHT22;8048;50.644;6.184;2023-05-07T05:33:57;14.20;99.90
15900;DHT22;8048;50.644;6.184;2023-05-07T05:36:22;14.20;99.90
15900;DHT22;8048;50.644;6.184;2023-05-07T05:38:48;14.20;99.90
15900;DHT22;8048;50.644;6.184;2023-05-07T05:41:13;14.20;99.90
15900;DHT22;8048;50.644;6.184;2023-05-07T05:43:39;14.30;99.90
15900;DHT22;8048;50.644;6.184;2023-05-07T05:46:05;14.30;99.90
15900;DHT22;8048;50.644;6.184;2023-05-07T05:48:31;14.40;99.90
15900;DHT22;8048;50.644;6.184;2023-05-07T05:50:56;14.50;99.90
15900;DHT22;8048;50.644;6.184;2023-05-07T05:53:22;14.50;99.90
15900;DHT22;8048;50.644;6.184;2023-05-07T05:55:48;14.70;99.90
15900;DHT22;8048;50.644;6.184;2023-05-07T05:58:13;14.80;99.90
15900;DHT22;8048;50.644;6.184;2023-05-07T06:00:40;14.90;99.90
15900;DHT22;8048;50.644;6.184;2023-05-07T06:03:06;14.90;99.90
15900;DHT22;8048;50.644;6.184;2023-05-07T06:05:31;15.00;99.90
15900;DHT22;8048;50.644;6.184;2023-05-07T06:07:57;15.10;99.90
15900;DHT22;8048;50.644;6.184;2023-05-07T06:10:22;15.10;99.90
15900;DHT22;8048;50.644;6.184;2023-05-07T06:12:49;15.20;99.90
15900;DHT22;8048;50.644;6.184;2023-05-07T06:15:14;15.30;99.90
15900;DHT22;8048;50.644;6.184;2023-05-07T06:17:40;15.30;99.90
15900;DHT22;8048;50.644;6.184;2023-05-07T06:20:06;15.40;99.90
15900;DHT22;8048;50.644;6.184;2023-05-07T06:22:32;15.50;99.90
15900;DHT22;8048;50.644;6.184;2023-05-07T06:24:57;15.50;99.90
15900;DHT22;8048;50.644;6.184;2023-05-07T06:27:23;15.60;99.90
15900;DHT22;8048;50.644;6.184;2023-05-07T06:29:48;15.70;99.90
15900;DHT22;8048;50.644;6.184;2023-05-07T06:32:14;15.80;99.90
15900;DHT22;8048;50.644;6.184;2023-05-07T06:34:40;15.90;99.90
15900;DHT22;8048;50.644;6.184;2023-05-07T06:37:06;16.00;99.90
15900;DHT22;8048;50.644;6.184;2023-05-07T06:39:32;16.00;99.90
15900;DHT22;8048;50.644;6.184;2023-05-07T06:41:59;16.10;99.90
15900;DHT22;8048;50.644;6.184;2023-05-07T06:44:25;16.20;99.90
15900;DHT22;8048;50.644;6.184;2023-05-07T06:46:50;16.30;99.90
15900;DHT22;8048;50.644;6.184;2023-05-07T06:49:16;16.30;99.90
15900;DHT22;8048;50.644;6.184;2023-05-07T06:51:41;16.30;99.90
15900;DHT22;8048;50.644;6.184;2023-05-07T06:54:07;16.40;99.90
15900;DHT22;8048;50.644;6.184;2023-05-07T06:56:33;16.50;99.40
15900;DHT22;8048;50.644;6.184;2023-05-07T06:59:00;16.60;99.10
15900;DHT22;8048;50.644;6.184;2023-05-07T07:01:25;16.60;99.50
15900;DHT22;8048;50.644;6.184;2023-05-07T07:03:51;16.70;99.30
15900;DHT22;8048;50.644;6.184;2023-05-07T07:06:17;16.80;99.30
15900;DHT22;8048;50.644;6.184;2023-05-07T07:08:42;16.90;99.00
15900;DHT22;8048;50.644;6.184;2023-05-07T07:11:08;17.00;98.50
15900;DHT22;8048;50.644;6.184;2023-05-07T07:13:34;17.10;98.80
15900;DHT22;8048;50.644;6.184;2023-05-07T07:16:00;17.20;98.10
15900;DHT22;8048;50.644;6.184;2023-05-07T07:18:25;17.30;98.20
15900;DHT22;8048;50.644;6.184;2023-05-07T07:20:51;17.40;98.60
15900;DHT22;8048;50.644;6.184;2023-05-07T07:23:16;17.60;97.70
15900;DHT22;8048;50.644;6.184;2023-05-07T07:25:42;17.80;98.20
15900;DHT22;8048;50.644;6.184;2023-05-07T07:28:07;17.90;98.60
15900;DHT22;8048;50.644;6.184;2023-05-07T07:30:33;18.00;96.80
15900;DHT22;8048;50.644;6.184;2023-05-07T07:32:59;18.00;97.20
15900;DHT22;8048;50.644;6.184;2023-05-07T07:35:32;18.00;96.80
15900;DHT22;8048;50.644;6.184;2023-05-07T07:37:57;18.10;95.90
15900;DHT22;8048;50.644;6.184;2023-05-07T07:40:23;18.10;95.70
15900;DHT22;8048;50.644;6.184;2023-05-07T07:42:50;18.10;95.50
15900;DHT22;8048;50.644;6.184;2023-05-07T07:45:16;18.10;96.40
15900;DHT22;8048;50.644;6.184;2023-05-07T07:47:42;18.20;96.10
15900;DHT22;8048;50.644;6.184;2023-05-07T07:50:08;18.30;95.80
15900;DHT22;8048;50.644;6.184;2023-05-07T07:52:34;18.40;95.30
15900;DHT22;8048;50.644;6.184;2023-05-07T07:55:00;18.50;94.40
15900;DHT22;8048;50.644;6.184;2023-05-07T07:57:25;18.50;94.70
15900;DHT22;8048;50.644;6.184;2023-05-07T07:59:51;18.60;94.20
15900;DHT22;8048;50.644;6.184;2023-05-07T08:02:17;18.70;94.40
15900;DHT22;8048;50.644;6.184;2023-05-07T08:04:43;18.80;94.50
15900;DHT22;8048;50.644;6.184;2023-05-07T08:07:09;18.90;94.20
15900;DHT22;8048;50.644;6.184;2023-05-07T08:09:35;18.90;93.90
15900;DHT22;8048;50.644;6.184;2023-05-07T08:12:01;18.90;93.90
15900;DHT22;8048;50.644;6.184;2023-05-07T08:14:27;19.00;93.70
15900;DHT22;8048;50.644;6.184;2023-05-07T08:16:53;19.00;93.40
15900;DHT22;8048;50.644;6.184;2023-05-07T08:19:19;19.10;93.10
15900;DHT22;8048;50.644;6.184;2023-05-07T08:21:45;19.20;92.90
15900;DHT22;8048;50.644;6.184;2023-05-07T08:24:13;19.30;92.60
15900;DHT22;8048;50.644;6.184;2023-05-07T08:26:39;19.60;92.80
15900;DHT22;8048;50.644;6.184;2023-05-07T08:29:04;19.80;92.10
15900;DHT22;8048;50.644;6.184;2023-05-07T08:31:30;20.00;91.40
15900;DHT22;8048;50.644;6.184;2023-05-07T08:33:57;20.20;92.00
15900;DHT22;8048;50.644;6.184;2023-05-07T08:36:22;20.30;91.80
15900;DHT22;8048;50.644;6.184;2023-05-07T08:38:48;20.40;91.90
15900;DHT22;8048;50.644;6.184;2023-05-07T08:41:15;20.40;91.50
15900;DHT22;8048;50.644;6.184;2023-05-07T08:43:41;20.40;90.60
15900;DHT22;8048;50.644;6.184;2023-05-07T08:46:09;20.40;90.50
15900;DHT22;8048;50.644;6.184;2023-05-07T08:48:35;20.40;90.10
15900;DHT22;8048;50.644;6.184;2023-05-07T08:51:01;20.40;91.50
15900;DHT22;8048;50.644;6.184;2023-05-07T08:53:27;20.50;92.10
15900;DHT22;8048;50.644;6.184;2023-05-07T08:55:53;20.70;91.70
15900;DHT22;8048;50.644;6.184;2023-05-07T08:58:18;20.90;92.60
15900;DHT22;8048;50.644;6.184;2023-05-07T09:00:44;21.00;91.40
15900;DHT22;8048;50.644;6.184;2023-05-07T09:03:10;21.00;90.20
15900;DHT22;8048;50.644;6.184;2023-05-07T09:05:39;21.20;91.30
15900;DHT22;8048;50.644;6.184;2023-05-07T09:08:06;21.20;90.50
15900;DHT22;8048;50.644;6.184;2023-05-07T09:10:33;21.30;90.80
15900;DHT22;8048;50.644;6.184;2023-05-07T09:12:59;21.40;90.10
15900;DHT22;8048;50.644;6.184;2023-05-07T09:15:25;21.50;90.40
15900;DHT22;8048;50.644;6.184;2023-05-07T09:17:51;21.60;88.20
15900;DHT22;8048;50.644;6.184;2023-05-07T09:20:16;21.70;89.80
15900;DHT22;8048;50.644;6.184;2023-05-07T09:22:42;21.90;90.70
15900;DHT22;8048;50.644;6.184;2023-05-07T09:25:09;22.10;90.60
15900;DHT22;8048;50.644;6.184;2023-05-07T09:27:35;22.10;90.80
15900;DHT22;8048;50.644;6.184;2023-05-07T09:30:05;22.00;91.90
15900;DHT22;8048;50.644;6.184;2023-05-07T09:32:34;22.00;92.20
15900;DHT22;8048;50.644;6.184;2023-05-07T09:35:01;22.10;92.10
15900;DHT22;8048;50.644;6.184;2023-05-07T09:37:28;22.20;92.60
15900;DHT22;8048;50.644;6.184;2023-05-07T09:39:55;22.20;91.40
15900;DHT22;8048;50.644;6.184;2023-05-07T09:42:24;22.30;91.50
15900;DHT22;8048;50.644;6.184;2023-05-07T09:44:52;22.30;91.80
15900;DHT22;8048;50.644;6.184;2023-05-07T09:47:19;22.30;91.50
15900;DHT22;8048;50.644;6.184;2023-05-07T09:49:47;22.20;91.10
15900;DHT22;8048;50.644;6.184;2023-05-07T09:52:13;22.10;91.20
15900;DHT22;8048;50.644;6.184;2023-05-07T09:54:40;22.00;91.30
15900;DHT22;8048;50.644;6.184;2023-05-07T09:57:10;21.90;91.50
15900;DHT22;8048;50.644;6.184;2023-05-07T09:59:37;21.80;91.10
15900;DHT22;8048;50.644;6.184;2023-05-07T10:02:04;21.70;91.10
15900;DHT22;8048;50.644;6.184;2023-05-07T10:04:31;21.60;92.20
15900;DHT22;8048;50.644;6.184;2023-05-07T10:06:56;21.50;92.00
15900;DHT22;8048;50.644;6.184;2023-05-07T10:09:23;21.60;92.70
15900;DHT22;8048;50.644;6.184;2023-05-07T10:11:49;21.60;92.10
15900;DHT22;8048;50.644;6.184;2023-05-07T10:14:15;21.60;92.60
15900;DHT22;8048;50.644;6.184;2023-05-07T10:16:41;21.60;92.10
15900;DHT22;8048;50.644;6.184;2023-05-07T10:19:10;21.60;91.90
15900;DHT22;8048;50.644;6.184;2023-05-07T10:21:42;21.60;91.80
15900;DHT22;8048;50.644;6.184;2023-05-07T10:24:15;21.50;91.60
15900;DHT22;8048;50.644;6.184;2023-05-07T10:26:47;21.40;92.60
15900;DHT22;8048;50.644;6.184;2023-05-07T10:35:00;21.30;91.50
15900;DHT22;8048;50.644;6.184;2023-05-07T10:37:28;21.10;92.40
15900;DHT22;8048;50.644;6.184;2023-05-07T10:39:54;21.10;92.20
15900;DHT22;8048;50.644;6.184;2023-05-07T10:42:20;21.10;91.90
15900;DHT22;8048;50.644;6.184;2023-05-07T10:44:46;21.10;92.30
15900;DHT22;8048;50.644;6.184;2023-05-07T10:47:13;21.00;92.30
15900;DHT22;8048;50.644;6.184;2023-05-07T10:52:18;21.00;92.50
15900;DHT22;8048;50.644;6.184;2023-05-07T10:54:45;20.90;92.90
15900;DHT22;8048;50.644;6.184;2023-05-07T10:59:55;20.90;93.40
15900;DHT22;8048;50.644;6.184;2023-05-07T11:02:20;21.00;92.90
15900;DHT22;8048;50.644;6.184;2023-05-07T11:05:21;21.00;93.00
15900;DHT22;8048;50.644;6.184;2023-05-07T11:08:00;21.10;93.30
15900;DHT22;8048;50.644;6.184;2023-05-07T11:10:54;21.00;94.10
15900;DHT22;8048;50.644;6.184;2023-05-07T11:16:22;21.00;95.00
15900;DHT22;8048;50.644;6.184;2023-05-07T11:18:50;21.00;95.10
15900;DHT22;8048;50.644;6.184;2023-05-07T11:21:39;20.80;94.80
15900;DHT22;8048;50.644;6.184;2023-05-07T11:24:06;20.80;94.60
15900;DHT22;8048;50.644;6.184;2023-05-07T11:27:01;20.60;94.40
15900;DHT22;8048;50.644;6.184;2023-05-07T11:29:27;20.50;94.90
15900;DHT22;8048;50.644;6.184;2023-05-07T11:31:55;20.40;95.00
15900;DHT22;8048;50.644;6.184;2023-05-07T11:34:25;20.30;95.10
15900;DHT22;8048;50.644;6.184;2023-05-07T11:36:51;20.20;95.50
15900;DHT22;8048;50.644;6.184;2023-05-07T11:39:32;20.10;95.10
15900;DHT22;8048;50.644;6.184;2023-05-07T11:42:01;20.00;95.00
15900;DHT22;8048;50.644;6.184;2023-05-07T11:44:47;19.90;95.80
15900;DHT22;8048;50.644;6.184;2023-05-07T11:47:18;19.70;95.60
15900;DHT22;8048;50.644;6.184;2023-05-07T11:49:47;19.70;98.00
15900;DHT22;8048;50.644;6.184;2023-05-07T11:52:14;19.60;99.00
15900;DHT22;8048;50.644;6.184;2023-05-07T11:54:39;19.40;99.70
15900;DHT22;8048;50.644;6.184;2023-05-07T11:57:05;19.20;99.90
15900;DHT22;8048;50.644;6.184;2023-05-07T11:59:41;19.10;99.90
15900;DHT22;8048;50.644;6.184;2023-05-07T12:02:07;19.00;99.90
15900;DHT22;8048;50.644;6.184;2023-05-07T12:04:33;18.80;99.90
15900;DHT22;8048;50.644;6.184;2023-05-07T12:06:58;18.50;99.90
15900;DHT22;8048;50.644;6.184;2023-05-07T12:09:24;18.40;99.90
15900;DHT22;8048;50.644;6.184;2023-05-07T12:11:51;18.40;99.90
15900;DHT22;8048;50.644;6.184;2023-05-07T12:14:17;18.40;99.90
15900;DHT22;8048;50.644;6.184;2023-05-07T12:16:43;18.20;99.90
15900;DHT22;8048;50.644;6.184;2023-05-07T12:19:09;18.10;99.90
15900;DHT22;8048;50.644;6.184;2023-05-07T12:21:38;18.10;99.90
15900;DHT22;8048;50.644;6.184;2023-05-07T12:24:04;18.10;99.90
15900;DHT22;8048;50.644;6.184;2023-05-07T12:26:30;18.10;99.90
15900;DHT22;8048;50.644;6.184;2023-05-07T12:28:57;18.20;99.90
15900;DHT22;8048;50.644;6.184;2023-05-07T12:31:23;18.40;99.90
15900;DHT22;8048;50.644;6.184;2023-05-07T12:33:50;18.60;99.90
15900;DHT22;8048;50.644;6.184;2023-05-07T12:36:16;18.80;99.90
15900;DHT22;8048;50.644;6.184;2023-05-07T12:38:41;19.10;99.90
15900;DHT22;8048;50.644;6.184;2023-05-07T12:41:09;19.30;99.90
15900;DHT22;8048;50.644;6.184;2023-05-07T12:43:35;19.50;99.90
15900;DHT22;8048;50.644;6.184;2023-05-07T12:46:06;19.60;99.90
15900;DHT22;8048;50.644;6.184;2023-05-07T12:48:32;19.70;99.90
15900;DHT22;8048;50.644;6.184;2023-05-07T12:50:59;19.80;99.90
15900;DHT22;8048;50.644;6.184;2023-05-07T12:53:26;19.80;99.90
15900;DHT22;8048;50.644;6.184;2023-05-07T12:55:54;19.80;99.90
15900;DHT22;8048;50.644;6.184;2023-05-07T12:58:30;19.80;99.90
15900;DHT22;8048;50.644;6.184;2023-05-07T13:00:58;19.70;99.90
15900;DHT22;8048;50.644;6.184;2023-05-07T13:03:29;19.60;99.90
15900;DHT22;8048;50.644;6.184;2023-05-07T13:05:57;19.50;99.90
15900;DHT22;8048;50.644;6.184;2023-05-07T13:10:49;19.40;99.90
15900;DHT22;8048;50.644;6.184;2023-05-07T13:13:15;19.40;99.90
15900;DHT22;8048;50.644;6.184;2023-05-07T13:15:40;19.40;99.90
15900;DHT22;8048;50.644;6.184;2023-05-07T13:18:06;19.40;99.90
15900;DHT22;8048;50.644;6.184;2023-05-07T13:20:32;19.40;99.90
15900;DHT22;8048;50.644;6.184;2023-05-07T13:22:57;19.40;99.90
15900;DHT22;8048;50.644;6.184;2023-05-07T13:25:23;19.40;99.90
15900;DHT22;8048;50.644;6.184;2023-05-07T13:27:48;19.30;99.90
15900;DHT22;8048;50.644;6.184;2023-05-07T13:30:14;19.20;99.90
15900;DHT22;8048;50.644;6.184;2023-05-07T13:32:39;19.20;99.90
15900;DHT22;8048;50.644;6.184;2023-05-07T13:35:05;19.10;99.90
15900;DHT22;8048;50.644;6.184;2023-05-07T13:37:31;19.00;99.90
15900;DHT22;8048;50.644;6.184;2023-05-07T13:39:56;19.00;99.90
15900;DHT22;8048;50.644;6.184;2023-05-07T13:42:22;19.00;99.90
15900;DHT22;8048;50.644;6.184;2023-05-07T13:44:47;19.00;99.90
15900;DHT22;8048;50.644;6.184;2023-05-07T13:47:13;19.00;99.90
15900;DHT22;8048;50.644;6.184;2023-05-07T13:49:39;19.00;99.90
15900;DHT22;8048;50.644;6.184;2023-05-07T13:52:04;19.00;99.90
15900;DHT22;8048;50.644;6.184;2023-05-07T13:54:30;19.10;99.90
15900;DHT22;8048;50.644;6.184;2023-05-07T13:56:55;19.00;99.90
15900;DHT22;8048;50.644;6.184;2023-05-07T13:59:21;19.10;99.90
15900;DHT22;8048;50.644;6.184;2023-05-07T14:01:46;19.10;99.90
15900;DHT22;8048;50.644;6.184;2023-05-07T14:04:12;19.10;99.90
15900;DHT22;8048;50.644;6.184;2023-05-07T14:06:38;19.10;99.90
15900;DHT22;8048;50.644;6.184;2023-05-07T14:09:04;19.10;99.90
15900;DHT22;8048;50.644;6.184;2023-05-07T14:11:29;19.10;99.90
15900;DHT22;8048;50.644;6.184;2023-05-07T14:13:55;19.20;99.90
15900;DHT22;8048;50.644;6.184;2023-05-07T14:16:22;19.20;99.90
15900;DHT22;8048;50.644;6.184;2023-05-07T14:18:47;19.30;99.90
15900;DHT22;8048;50.644;6.184;2023-05-07T14:21:13;19.30;99.90
15900;DHT22;8048;50.644;6.184;2023-05-07T14:23:39;19.30;99.90
15900;DHT22;8048;50.644;6.184;2023-05-07T14:26:04;19.40;99.90
15900;DHT22;8048;50.644;6.184;2023-05-07T14:28:30;19.40;99.90
15900;DHT22;8048;50.644;6.184;2023-05-07T14:30:56;19.40;99.90
15900;DHT22;8048;50.644;6.184;2023-05-07T14:33:21;19.50;99.90
15900;DHT22;8048;50.644;6.184;2023-05-07T14:35:47;19.50;99.90
15900;DHT22;8048;50.644;6.184;2023-05-07T14:38:14;19.60;99.90
15900;DHT22;8048;50.644;6.184;2023-05-07T14:40:41;19.60;99.90
15900;DHT22;8048;50.644;6.184;2023-05-07T14:43:06;19.60;99.90
15900;DHT22;8048;50.644;6.184;2023-05-07T14:45:32;19.60;99.90
15900;DHT22;8048;50.644;6.184;2023-05-07T14:47:57;19.60;99.90
15900;DHT22;8048;50.644;6.184;2023-05-07T14:50:23;19.60;99.90
15900;DHT22;8048;50.644;6.184;2023-05-07T14:52:48;19.50;99.90
15900;DHT22;8048;50.644;6.184;2023-05-07T14:55:14;19.40;99.90
15900;DHT22;8048;50.644;6.184;2023-05-07T14:57:40;19.40;99.90
15900;DHT22;8048;50.644;6.184;2023-05-07T15:00:08;19.40;99.90
15900;DHT22;8048;50.644;6.184;2023-05-07T15:02:34;19.40;99.90
15900;DHT22;8048;50.644;6.184;2023-05-07T15:05:00;19.40;99.90
15900;DHT22;8048;50.644;6.184;2023-05-07T15:07:26;19.40;99.90
15900;DHT22;8048;50.644;6.184;2023-05-07T15:09:52;19.30;99.90
15900;DHT22;8048;50.644;6.184;2023-05-07T15:12:17;19.20;99.90
15900;DHT22;8048;50.644;6.184;2023-05-07T15:14:43;19.20;99.90
15900;DHT22;8048;50.644;6.184;2023-05-07T15:17:08;19.10;99.90
15900;DHT22;8048;50.644;6.184;2023-05-07T15:19:34;19.00;99.90
15900;DHT22;8048;50.644;6.184;2023-05-07T15:22:00;19.00;99.90
15900;DHT22;8048;50.644;6.184;2023-05-07T15:24:28;19.00;99.90
15900;DHT22;8048;50.644;6.184;2023-05-07T15:26:54;18.90;99.90
15900;DHT22;8048;50.644;6.184;2023-05-07T15:29:19;18.90;99.90
15900;DHT22;8048;50.644;6.184;2023-05-07T15:31:46;18.80;99.90
15900;DHT22;8048;50.644;6.184;2023-05-07T15:34:11;18.80;99.90
15900;DHT22;8048;50.644;6.184;2023-05-07T15:36:37;18.80;99.90
15900;DHT22;8048;50.644;6.184;2023-05-07T15:39:02;18.70;99.90
15900;DHT22;8048;50.644;6.184;2023-05-07T15:41:28;18.70;99.90
15900;DHT22;8048;50.644;6.184;2023-05-07T15:43:54;18.60;99.90
15900;DHT22;8048;50.644;6.184;2023-05-07T15:46:21;18.70;99.90
15900;DHT22;8048;50.644;6.184;2023-05-07T15:48:47;18.70;99.90
15900;DHT22;8048;50.644;6.184;2023-05-07T15:51:12;18.60;99.90
15900;DHT22;8048;50.644;6.184;2023-05-07T15:53:38;18.50;99.90
15900;DHT22;8048;50.644;6.184;2023-05-07T15:56:05;18.50;99.90